sensor_id;sensor_type;location;lat;lon;timestamp;pressure;altitude;pressure_sealevel;temperature;humidity
3544;BME280;1786;52.870;9.578;2022-12-22T00:02:16;99599.50;;;15.09;65.57
3544;BME280;1786;52.870;9.578;2022-12-22T00:05:14;99594.06;;;15.46;64.69
3544;BME280;1786;52.870;9.578;2022-12-22T00:08:00;99592.16;;;15.74;64.30
3544;BME280;1786;52.870;9.578;2022-12-22T00:10:45;99587.28;;;15.70;63.96
3544;BME280;1786;52.870;9.578;2022-12-22T00:13:31;99592.06;;;15.66;64.40
3544;BME280;1786;52.870;9.578;2022-12-22T00:16:16;99587.63;;;15.93;63.47
3544;BME280;1786;52.870;9.578;2022-12-22T00:19:04;99584.00;;;15.58;64.29
3544;BME280;1786;52.870;9.578;2022-12-22T00:21:58;99586.81;;;15.56;65.17
3544;BME280;1786;52.870;9.578;2022-12-22T00:24:45;99583.91;;;15.86;63.62
3544;BME280;1786;52.870;9.578;2022-12-22T00:27:30;99585.53;;;16.05;63.46
3544;BME280;1786;52.870;9.578;2022-12-22T00:30:16;99582.56;;;15.82;64.25
3544;BME280;1786;52.870;9.578;2022-12-22T00:33:03;99574.81;;;15.34;65.55
3544;BME280;1786;52.870;9.578;2022-12-22T00:35:50;99573.00;;;15.71;64.58
3544;BME280;1786;52.870;9.578;2022-12-22T00:38:35;99570.09;;;15.46;65.15
3544;BME280;1786;52.870;9.578;2022-12-22T00:41:20;99560.06;;;15.40;65.44
3544;BME280;1786;52.870;9.578;2022-12-22T00:44:05;99561.56;;;15.61;65.07
3544;BME280;1786;52.870;9.578;2022-12-22T00:46:50;99559.06;;;15.41;65.23
3544;BME280;1786;52.870;9.578;2022-12-22T00:49:36;99552.47;;;15.45;65.54
3544;BME280;1786;52.870;9.578;2022-12-22T00:52:22;99554.75;;;15.40;65.74
3544;BME280;1786;52.870;9.578;2022-12-22T00:55:15;99555.41;;;15.60;65.24
3544;BME280;1786;52.870;9.578;2022-12-22T00:58:20;99543.50;;;15.10;66.53
3544;BME280;1786;52.870;9.578;2022-12-22T01:01:05;99543.50;;;15.28;65.83
3544;BME280;1786;52.870;9.578;2022-12-22T01:03:50;99548.88;;;15.36;65.86
3544;BME280;1786;52.870;9.578;2022-12-22T01:06:36;99545.72;;;14.97;67.19
3544;BME280;1786;52.870;9.578;2022-12-22T01:09:22;99544.75;;;15.78;65.11
3544;BME280;1786;52.870;9.578;2022-12-22T01:12:16;99543.19;;;15.93;64.39
3544;BME280;1786;52.870;9.578;2022-12-22T01:15:09;99543.25;;;15.57;65.46
3544;BME280;1786;52.870;9.578;2022-12-22T01:17:55;99542.53;;;15.99;64.29
3544;BME280;1786;52.870;9.578;2022-12-22T01:20:40;99530.63;;;16.12;64.17
3544;BME280;1786;52.870;9.578;2022-12-22T01:23:26;99530.13;;;16.16;64.08
3544;BME280;1786;52.870;9.578;2022-12-22T01:26:12;99520.25;;;16.00;64.29
3544;BME280;1786;52.870;9.578;2022-12-22T01:28:57;99522.97;;;15.65;65.17
3544;BME280;1786;52.870;9.578;2022-12-22T01:31:43;99515.91;;;15.73;65.27
3544;BME280;1786;52.870;9.578;2022-12-22T01:34:28;99527.47;;;16.16;63.79
3544;BME280;1786;52.870;9.578;2022-12-22T01:37:13;99518.31;;;16.19;63.92
3544;BME280;1786;52.870;9.578;2022-12-22T01:39:59;99518.94;;;16.47;63.55
3544;BME280;1786;52.870;9.578;2022-12-22T01:42:44;99528.53;;;16.32;63.53
3544;BME280;1786;52.870;9.578;2022-12-22T01:45:32;99511.25;;;16.01;64.61
3544;BME280;1786;52.870;9.578;2022-12-22T01:48:27;99507.66;;;16.19;64.00
3544;BME280;1786;52.870;9.578;2022-12-22T01:51:17;99511.25;;;16.01;64.06
3544;BME280;1786;52.870;9.578;2022-12-22T01:54:04;99500.09;;;15.98;64.75
3544;BME280;1786;52.870;9.578;2022-12-22T01:56:50;99500.56;;;15.93;64.87
3544;BME280;1786;52.870;9.578;2022-12-22T01:59:36;99497.34;;;15.64;65.73
3544;BME280;1786;52.870;9.578;2022-12-22T02:02:22;99500.28;;;15.52;66.02
3544;BME280;1786;52.870;9.578;2022-12-22T02:05:08;99492.47;;;15.59;65.94
3544;BME280;1786;52.870;9.578;2022-12-22T02:08:25;99497.56;;;15.96;64.90
3544;BME280;1786;52.870;9.578;2022-12-22T02:11:37;99489.53;;;15.88;64.95
3544;BME280;1786;52.870;9.578;2022-12-22T02:14:44;99479.78;;;15.71;65.42
3544;BME280;1786;52.870;9.578;2022-12-22T02:17:58;99477.25;;;15.95;65.07
3544;BME280;1786;52.870;9.578;2022-12-22T02:20:59;99477.06;;;16.31;64.06
3544;BME280;1786;52.870;9.578;2022-12-22T02:24:09;99476.00;;;16.16;64.57
3544;BME280;1786;52.870;9.578;2022-12-22T02:26:58;99478.44;;;16.43;63.96
3544;BME280;1786;52.870;9.578;2022-12-22T02:29:50;99475.06;;;16.33;63.80
3544;BME280;1786;52.870;9.578;2022-12-22T02:32:40;99468.00;;;16.08;64.52
3544;BME280;1786;52.870;9.578;2022-12-22T02:35:46;99472.47;;;16.07;64.81
3544;BME280;1786;52.870;9.578;2022-12-22T02:38:48;99458.03;;;15.84;65.01
3544;BME280;1786;52.870;9.578;2022-12-22T02:41:53;99464.44;;;15.99;64.91
3544;BME280;1786;52.870;9.578;2022-12-22T02:45:09;99459.94;;;15.99;64.74
3544;BME280;1786;52.870;9.578;2022-12-22T02:50:52;99443.38;;;15.53;66.25
3544;BME280;1786;52.870;9.578;2022-12-22T02:53:40;99433.09;;;15.32;66.84
3544;BME280;1786;52.870;9.578;2022-12-22T02:56:25;99430.25;;;15.34;66.69
3544;BME280;1786;52.870;9.578;2022-12-22T02:59:11;99427.09;;;15.30;67.06
3544;BME280;1786;52.870;9.578;2022-12-22T03:01:56;99428.75;;;15.57;66.12
3544;BME280;1786;52.870;9.578;2022-12-22T03:04:42;99429.56;;;15.84;65.63
3544;BME280;1786;52.870;9.578;2022-12-22T03:07:27;99423.78;;;15.10;67.95
3544;BME280;1786;52.870;9.578;2022-12-22T03:10:12;99425.13;;;15.93;65.05
3544;BME280;1786;52.870;9.578;2022-12-22T03:12:58;99412.75;;;16.42;63.75
3544;BME280;1786;52.870;9.578;2022-12-22T03:15:44;99419.59;;;16.37;64.20
3544;BME280;1786;52.870;9.578;2022-12-22T03:18:30;99423.97;;;16.62;63.83
3544;BME280;1786;52.870;9.578;2022-12-22T03:21:15;99423.41;;;16.26;64.55
3544;BME280;1786;52.870;9.578;2022-12-22T03:24:00;99428.06;;;16.32;64.47
3544;BME280;1786;52.870;9.578;2022-12-22T03:26:46;99421.59;;;15.92;65.20
3544;BME280;1786;52.870;9.578;2022-12-22T03:29:12;99413.25;;;15.87;65.69
3544;BME280;1786;52.870;9.578;2022-12-22T03:31:39;99415.56;;;15.82;66.36
3544;BME280;1786;52.870;9.578;2022-12-22T03:34:06;99416.03;;;16.20;65.09
3544;BME280;1786;52.870;9.578;2022-12-22T03:36:32;99410.22;;;16.25;64.87
3544;BME280;1786;52.870;9.578;2022-12-22T03:38:59;99402.34;;;15.98;65.78
3544;BME280;1786;52.870;9.578;2022-12-22T03:41:25;99395.63;;;15.86;65.72
3544;BME280;1786;52.870;9.578;2022-12-22T03:44:11;99393.75;;;16.21;65.23
3544;BME280;1786;52.870;9.578;2022-12-22T03:46:56;99391.44;;;16.42;64.06
3544;BME280;1786;52.870;9.578;2022-12-22T03:49:24;99390.47;;;16.43;64.38
3544;BME280;1786;52.870;9.578;2022-12-22T03:51:52;99387.31;;;16.56;63.97
3544;BME280;1786;52.870;9.578;2022-12-22T03:54:23;99396.66;;;16.69;63.65
3544;BME280;1786;52.870;9.578;2022-12-22T03:56:51;99387.13;;;16.50;63.71
3544;BME280;1786;52.870;9.578;2022-12-22T03:59:18;99390.84;;;16.81;63.19
3544;BME280;1786;52.870;9.578;2022-12-22T04:01:49;99380.50;;;17.11;62.62
3544;BME280;1786;52.870;9.578;2022-12-22T04:04:19;99375.97;;;17.12;62.51
3544;BME280;1786;52.870;9.578;2022-12-22T04:06:46;99369.66;;;16.96;62.56
3544;BME280;1786;52.870;9.578;2022-12-22T04:09:13;99365.47;;;16.69;63.42
3544;BME280;1786;52.870;9.578;2022-12-22T04:11:40;99370.25;;;16.33;64.24
3544;BME280;1786;52.870;9.578;2022-12-22T04:14:25;99362.13;;;16.51;64.11
3544;BME280;1786;52.870;9.578;2022-12-22T04:17:00;99348.25;;;16.14;64.94
3544;BME280;1786;52.870;9.578;2022-12-22T04:19:27;99342.72;;;15.99;65.28
3544;BME280;1786;52.870;9.578;2022-12-22T04:21:54;99337.38;;;15.99;65.30
3544;BME280;1786;52.870;9.578;2022-12-22T04:24:20;99331.91;;;16.01;65.50
3544;BME280;1786;52.870;9.578;2022-12-22T04:26:48;99334.03;;;15.89;66.42
3544;BME280;1786;52.870;9.578;2022-12-22T04:29:15;99331.13;;;16.33;64.59
3544;BME280;1786;52.870;9.578;2022-12-22T04:31:42;99333.34;;;15.87;65.47
3544;BME280;1786;52.870;9.578;2022-12-22T04:34:09;99328.19;;;15.51;66.72
3544;BME280;1786;52.870;9.578;2022-12-22T04:36:36;99329.72;;;15.96;65.79
3544;BME280;1786;52.870;9.578;2022-12-22T04:39:03;99317.72;;;15.92;65.66
3544;BME280;1786;52.870;9.578;2022-12-22T04:41:29;99332.44;;;16.29;65.12
3544;BME280;1786;52.870;9.578;2022-12-22T04:43:56;99325.44;;;16.44;64.27
3544;BME280;1786;52.870;9.578;2022-12-22T04:46:23;99320.78;;;16.71;63.76
3544;BME280;1786;52.870;9.578;2022-12-22T04:48:49;99318.44;;;16.35;64.20
3544;BME280;1786;52.870;9.578;2022-12-22T04:51:24;99315.78;;;16.52;64.08
3544;BME280;1786;52.870;9.578;2022-12-22T04:53:51;99307.09;;;16.25;64.64
3544;BME280;1786;52.870;9.578;2022-12-22T04:56:18;99313.47;;;16.40;64.10
3544;BME280;1786;52.870;9.578;2022-12-22T04:58:45;99313.59;;;16.06;65.37
3544;BME280;1786;52.870;9.578;2022-12-22T05:01:14;99310.25;;;15.53;66.82
3544;BME280;1786;52.870;9.578;2022-12-22T05:03:41;99294.06;;;15.89;66.02
3544;BME280;1786;52.870;9.578;2022-12-22T05:06:08;99296.13;;;15.61;66.11
3544;BME280;1786;52.870;9.578;2022-12-22T05:08:35;99293.03;;;15.82;66.45
3544;BME280;1786;52.870;9.578;2022-12-22T05:11:02;99296.59;;;16.07;65.86
3544;BME280;1786;52.870;9.578;2022-12-22T05:13:30;99286.28;;;16.04;65.68
3544;BME280;1786;52.870;9.578;2022-12-22T05:16:11;99282.72;;;15.79;66.26
3544;BME280;1786;52.870;9.578;2022-12-22T05:18:39;99279.25;;;15.78;66.00
3544;BME280;1786;52.870;9.578;2022-12-22T05:21:12;99293.47;;;16.28;64.86
3544;BME280;1786;52.870;9.578;2022-12-22T05:23:40;99286.81;;;16.40;64.87
3544;BME280;1786;52.870;9.578;2022-12-22T05:26:08;99278.13;;;16.55;64.32
3544;BME280;1786;52.870;9.578;2022-12-22T05:28:34;99275.09;;;16.74;63.86
3544;BME280;1786;52.870;9.578;2022-12-22T05:31:22;99264.44;;;16.99;63.04
3544;BME280;1786;52.870;9.578;2022-12-22T05:33:50;99255.44;;;16.92;63.61
3544;BME280;1786;52.870;9.578;2022-12-22T05:36:17;99247.75;;;16.72;63.96
3544;BME280;1786;52.870;9.578;2022-12-22T05:38:44;99253.78;;;16.82;63.72
3544;BME280;1786;52.870;9.578;2022-12-22T05:41:11;99256.09;;;16.77;63.74
3544;BME280;1786;52.870;9.578;2022-12-22T05:43:38;99250.44;;;16.64;63.89
3544;BME280;1786;52.870;9.578;2022-12-22T05:46:07;99254.47;;;16.43;64.31
3544;BME280;1786;52.870;9.578;2022-12-22T05:48:35;99251.31;;;16.32;64.87
3544;BME280;1786;52.870;9.578;2022-12-22T05:51:08;99250.81;;;16.20;65.16
3544;BME280;1786;52.870;9.578;2022-12-22T05:53:35;99255.16;;;16.46;64.62
3544;BME280;1786;52.870;9.578;2022-12-22T05:56:02;99245.63;;;16.35;64.80
3544;BME280;1786;52.870;9.578;2022-12-22T05:58:29;99250.97;;;16.35;64.77
3544;BME280;1786;52.870;9.578;2022-12-22T06:00:57;99245.13;;;16.56;64.04
3544;BME280;1786;52.870;9.578;2022-12-22T06:03:25;99238.75;;;16.90;63.27
3544;BME280;1786;52.870;9.578;2022-12-22T06:05:52;99233.91;;;17.01;62.64
3544;BME280;1786;52.870;9.578;2022-12-22T06:08:19;99237.31;;;17.18;62.33
3544;BME280;1786;52.870;9.578;2022-12-22T06:10:47;99233.41;;;16.90;62.69
3544;BME280;1786;52.870;9.578;2022-12-22T06:13:13;99228.78;;;16.83;63.47
3544;BME280;1786;52.870;9.578;2022-12-22T06:15:40;99241.88;;;24.90;47.13
3544;BME280;1786;52.870;9.578;2022-12-22T06:18:07;99239.56;;;20.29;53.83
3544;BME280;1786;52.870;9.578;2022-12-22T06:20:34;99234.00;;;18.10;60.13
3544;BME280;1786;52.870;9.578;2022-12-22T06:23:01;99228.81;;;17.85;60.12
3544;BME280;1786;52.870;9.578;2022-12-22T06:25:27;99227.25;;;17.28;61.80
3544;BME280;1786;52.870;9.578;2022-12-22T06:27:54;99225.09;;;17.32;62.05
3544;BME280;1786;52.870;9.578;2022-12-22T06:30:20;99214.34;;;17.09;62.73
3544;BME280;1786;52.870;9.578;2022-12-22T06:32:54;99210.06;;;16.92;62.83
3544;BME280;1786;52.870;9.578;2022-12-22T06:35:21;99221.09;;;17.28;62.38
3544;BME280;1786;52.870;9.578;2022-12-22T06:37:47;99219.16;;;16.33;64.28
3544;BME280;1786;52.870;9.578;2022-12-22T06:40:14;99220.28;;;16.55;64.09
3544;BME280;1786;52.870;9.578;2022-12-22T06:42:40;99215.72;;;16.97;63.25
3544;BME280;1786;52.870;9.578;2022-12-22T06:45:41;99225.09;;;17.32;62.42
3544;BME280;1786;52.870;9.578;2022-12-22T06:48:09;99224.94;;;17.25;62.09
3544;BME280;1786;52.870;9.578;2022-12-22T06:50:36;99236.53;;;17.49;61.60
3544;BME280;1786;52.870;9.578;2022-12-22T06:53:03;99236.72;;;17.70;61.02
3544;BME280;1786;52.870;9.578;2022-12-22T06:55:30;99223.06;;;17.65;60.62
3544;BME280;1786;52.870;9.578;2022-12-22T06:57:57;99234.50;;;17.51;61.27
3544;BME280;1786;52.870;9.578;2022-12-22T07:00:23;99229.19;;;17.82;61.05
3544;BME280;1786;52.870;9.578;2022-12-22T07:02:50;99230.38;;;17.80;60.90
3544;BME280;1786;52.870;9.578;2022-12-22T07:05:17;99241.06;;;18.03;60.24
3544;BME280;1786;52.870;9.578;2022-12-22T07:07:44;99238.66;;;18.31;59.59
3544;BME280;1786;52.870;9.578;2022-12-22T07:10:10;99229.72;;;18.38;59.58
3544;BME280;1786;52.870;9.578;2022-12-22T07:12:37;99228.84;;;18.61;58.98
3544;BME280;1786;52.870;9.578;2022-12-22T07:15:04;99232.81;;;18.50;58.54
3544;BME280;1786;52.870;9.578;2022-12-22T07:17:31;99235.41;;;18.58;59.11
3544;BME280;1786;52.870;9.578;2022-12-22T07:19:57;99230.88;;;18.74;58.38
3544;BME280;1786;52.870;9.578;2022-12-22T07:22:24;99231.06;;;18.57;58.60
3544;BME280;1786;52.870;9.578;2022-12-22T07:24:55;99234.16;;;18.84;58.24
3544;BME280;1786;52.870;9.578;2022-12-22T07:27:23;99234.91;;;18.93;58.13
3544;BME280;1786;52.870;9.578;2022-12-22T07:29:49;99243.56;;;18.95;57.56
3544;BME280;1786;52.870;9.578;2022-12-22T07:32:16;99239.13;;;19.02;57.55
3544;BME280;1786;52.870;9.578;2022-12-22T07:34:43;99230.75;;;19.05;57.20
3544;BME280;1786;52.870;9.578;2022-12-22T07:37:10;99235.19;;;19.13;57.54
3544;BME280;1786;52.870;9.578;2022-12-22T07:39:38;99236.19;;;19.12;57.16
3544;BME280;1786;52.870;9.578;2022-12-22T07:42:05;99240.16;;;19.16;57.03
3544;BME280;1786;52.870;9.578;2022-12-22T07:44:50;99243.50;;;19.03;57.24
3544;BME280;1786;52.870;9.578;2022-12-22T07:47:17;99232.69;;;18.96;57.43
3544;BME280;1786;52.870;9.578;2022-12-22T07:49:43;99240.44;;;18.91;57.40
3544;BME280;1786;52.870;9.578;2022-12-22T07:52:29;99232.97;;;18.87;57.54
3544;BME280;1786;52.870;9.578;2022-12-22T07:54:55;99233.50;;;18.97;58.02
3544;BME280;1786;52.870;9.578;2022-12-22T07:57:22;99235.00;;;18.99;57.50
3544;BME280;1786;52.870;9.578;2022-12-22T07:59:48;99239.13;;;19.17;57.02
3544;BME280;1786;52.870;9.578;2022-12-22T08:02:15;99246.78;;;19.20;57.01
3544;BME280;1786;52.870;9.578;2022-12-22T08:04:42;99240.63;;;19.05;57.19
3544;BME280;1786;52.870;9.578;2022-12-22T08:07:09;99246.16;;;19.18;57.25
3544;BME280;1786;52.870;9.578;2022-12-22T08:09:35;99252.41;;;19.25;56.79
3544;BME280;1786;52.870;9.578;2022-12-22T08:12:02;99249.84;;;19.32;56.96
3544;BME280;1786;52.870;9.578;2022-12-22T08:14:28;99254.63;;;19.36;56.66
3544;BME280;1786;52.870;9.578;2022-12-22T08:16:56;99257.97;;;19.38;56.46
3544;BME280;1786;52.870;9.578;2022-12-22T08:19:23;99264.81;;;19.41;56.63
3544;BME280;1786;52.870;9.578;2022-12-22T08:21:50;99268.31;;;19.41;56.68
3544;BME280;1786;52.870;9.578;2022-12-22T08:24:19;99267.66;;;19.39;56.52
3544;BME280;1786;52.870;9.578;2022-12-22T08:26:48;99260.81;;;19.37;56.59
3544;BME280;1786;52.870;9.578;2022-12-22T08:29:20;99257.53;;;18.90;57.30
3544;BME280;1786;52.870;9.578;2022-12-22T08:31:49;99259.09;;;18.99;57.48
3544;BME280;1786;52.870;9.578;2022-12-22T08:34:16;99257.59;;;19.12;57.34
3544;BME280;1786;52.870;9.578;2022-12-22T08:36:46;99259.94;;;18.85;57.72
3544;BME280;1786;52.870;9.578;2022-12-22T08:39:15;99254.47;;;18.93;57.71
3544;BME280;1786;52.870;9.578;2022-12-22T08:41:42;99250.69;;;18.88;58.00
3544;BME280;1786;52.870;9.578;2022-12-22T08:44:25;99259.94;;;19.00;57.70
3544;BME280;1786;52.870;9.578;2022-12-22T08:46:54;99261.38;;;19.17;57.30
3544;BME280;1786;52.870;9.578;2022-12-22T08:49:22;99252.91;;;19.29;56.91
3544;BME280;1786;52.870;9.578;2022-12-22T08:51:49;99256.13;;;19.39;57.16
3544;BME280;1786;52.870;9.578;2022-12-22T08:54:16;99252.63;;;19.38;57.35
3544;BME280;1786;52.870;9.578;2022-12-22T08:56:44;99253.63;;;19.37;56.63
3544;BME280;1786;52.870;9.578;2022-12-22T08:59:11;99253.53;;;19.45;56.94
3544;BME280;1786;52.870;9.578;2022-12-22T09:01:39;99253.25;;;19.40;56.80
3544;BME280;1786;52.870;9.578;2022-12-22T09:04:14;99251.47;;;19.48;56.89
3544;BME280;1786;52.870;9.578;2022-12-22T09:06:40;99257.47;;;19.50;56.69
3544;BME280;1786;52.870;9.578;2022-12-22T09:09:09;99256.34;;;19.59;56.56
3544;BME280;1786;52.870;9.578;2022-12-22T09:11:37;99267.34;;;19.64;56.60
3544;BME280;1786;52.870;9.578;2022-12-22T09:14:06;99260.03;;;19.73;56.29
3544;BME280;1786;52.870;9.578;2022-12-22T09:16:34;99265.88;;;19.76;56.67
3544;BME280;1786;52.870;9.578;2022-12-22T09:19:01;99260.13;;;19.79;56.40
3544;BME280;1786;52.870;9.578;2022-12-22T09:21:29;99274.81;;;19.83;56.31
3544;BME280;1786;52.870;9.578;2022-12-22T09:23:56;99279.97;;;19.85;56.22
3544;BME280;1786;52.870;9.578;2022-12-22T09:26:24;99272.41;;;19.88;56.26
3544;BME280;1786;52.870;9.578;2022-12-22T09:28:51;99267.66;;;19.91;56.23
3544;BME280;1786;52.870;9.578;2022-12-22T09:31:20;99270.34;;;19.91;56.08
3544;BME280;1786;52.870;9.578;2022-12-22T09:33:47;99279.03;;;19.93;56.07
3544;BME280;1786;52.870;9.578;2022-12-22T09:36:17;99278.03;;;19.94;56.11
3544;BME280;1786;52.870;9.578;2022-12-22T09:38:44;99267.34;;;20.00;56.38
3544;BME280;1786;52.870;9.578;2022-12-22T09:41:17;99277.31;;;20.06;56.52
3544;BME280;1786;52.870;9.578;2022-12-22T09:43:46;99276.53;;;20.13;56.44
3544;BME280;1786;52.870;9.578;2022-12-22T09:46:29;99273.41;;;20.30;56.78
3544;BME280;1786;52.870;9.578;2022-12-22T09:48:57;99269.50;;;20.33;56.65
3544;BME280;1786;52.870;9.578;2022-12-22T09:51:24;99273.91;;;20.41;56.03
3544;BME280;1786;52.870;9.578;2022-12-22T09:53:56;99273.47;;;20.37;56.11
3544;BME280;1786;52.870;9.578;2022-12-22T09:56:25;99274.13;;;20.39;55.96
3544;BME280;1786;52.870;9.578;2022-12-22T09:58:52;99276.22;;;20.22;56.07
3544;BME280;1786;52.870;9.578;2022-12-22T10:07:32;99287.78;;;20.44;55.61
3544;BME280;1786;52.870;9.578;2022-12-22T10:10:22;99285.50;;;20.41;55.40
3544;BME280;1786;52.870;9.578;2022-12-22T10:12:58;99295.53;;;20.32;55.46
3544;BME280;1786;52.870;9.578;2022-12-22T10:15:26;99298.66;;;20.15;55.68
3544;BME280;1786;52.870;9.578;2022-12-22T10:18:09;99295.53;;;20.32;55.53
3544;BME280;1786;52.870;9.578;2022-12-22T10:20:36;99298.66;;;20.36;55.72
3544;BME280;1786;52.870;9.578;2022-12-22T10:23:23;99295.41;;;20.19;55.65
3544;BME280;1786;52.870;9.578;2022-12-22T10:28:59;99296.25;;;19.83;56.33
3544;BME280;1786;52.870;9.578;2022-12-22T10:31:31;99290.72;;;19.55;57.20
3544;BME280;1786;52.870;9.578;2022-12-22T10:34:14;99298.78;;;19.70;57.46
3544;BME280;1786;52.870;9.578;2022-12-22T10:36:49;99294.84;;;19.87;56.96
3544;BME280;1786;52.870;9.578;2022-12-22T10:39:35;99301.63;;;19.83;57.07
3544;BME280;1786;52.870;9.578;2022-12-22T10:42:09;99301.00;;;19.52;57.76
3544;BME280;1786;52.870;9.578;2022-12-22T10:44:43;99304.22;;;19.47;58.38
3544;BME280;1786;52.870;9.578;2022-12-22T10:47:14;99296.28;;;19.39;58.20
3544;BME280;1786;52.870;9.578;2022-12-22T10:49:46;99301.00;;;19.52;57.95
3544;BME280;1786;52.870;9.578;2022-12-22T10:52:21;99285.03;;;19.14;58.85
3544;BME280;1786;52.870;9.578;2022-12-22T10:55:26;99285.19;;;19.42;58.54
3544;BME280;1786;52.870;9.578;2022-12-22T11:00:39;99292.78;;;18.94;59.32
3544;BME280;1786;52.870;9.578;2022-12-22T11:03:11;99298.88;;;19.17;59.14
3544;BME280;1786;52.870;9.578;2022-12-22T11:05:49;99294.00;;;19.21;59.39
3544;BME280;1786;52.870;9.578;2022-12-22T11:08:18;99302.84;;;19.51;58.67
3544;BME280;1786;52.870;9.578;2022-12-22T11:10:53;99305.16;;;19.54;58.20
3544;BME280;1786;52.870;9.578;2022-12-22T11:13:51;99304.97;;;19.41;59.18
3544;BME280;1786;52.870;9.578;2022-12-22T11:16:54;99296.47;;;19.52;58.67
3544;BME280;1786;52.870;9.578;2022-12-22T11:19:41;99311.31;;;19.55;58.41
3544;BME280;1786;52.870;9.578;2022-12-22T11:22:24;99309.13;;;19.43;58.90
3544;BME280;1786;52.870;9.578;2022-12-22T11:36:14;99330.63;;;19.80;58.20
3544;BME280;1786;52.870;9.578;2022-12-22T11:38:49;99334.94;;;19.96;58.01
3544;BME280;1786;52.870;9.578;2022-12-22T11:41:30;99332.38;;;19.87;57.90
3544;BME280;1786;52.870;9.578;2022-12-22T11:53:24;99351.84;;;18.92;60.06
3544;BME280;1786;52.870;9.578;2022-12-22T12:04:22;99367.94;;;17.84;62.52
3544;BME280;1786;52.870;9.578;2022-12-22T12:09:57;99355.84;;;17.96;62.33
3544;BME280;1786;52.870;9.578;2022-12-22T12:12:41;99359.06;;;18.46;60.50
3544;BME280;1786;52.870;9.578;2022-12-22T12:15:23;99361.13;;;18.58;59.74
3544;BME280;1786;52.870;9.578;2022-12-22T12:18:00;99357.63;;;18.81;59.28
3544;BME280;1786;52.870;9.578;2022-12-22T12:20:34;99361.84;;;18.98;58.88
3544;BME280;1786;52.870;9.578;2022-12-22T12:23:34;99364.91;;;19.10;59.01
3544;BME280;1786;52.870;9.578;2022-12-22T12:26:21;99378.03;;;19.50;58.06
3544;BME280;1786;52.870;9.578;2022-12-22T12:32:00;99383.72;;;19.70;57.54
3544;BME280;1786;52.870;9.578;2022-12-22T12:34:37;99397.81;;;19.63;57.66
3544;BME280;1786;52.870;9.578;2022-12-22T12:37:21;99393.25;;;19.19;58.58
3544;BME280;1786;52.870;9.578;2022-12-22T12:42:34;99389.47;;;19.14;58.62
3544;BME280;1786;52.870;9.578;2022-12-22T12:45:03;99404.38;;;19.31;58.76
3544;BME280;1786;52.870;9.578;2022-12-22T12:47:33;99404.06;;;19.26;58.50
3544;BME280;1786;52.870;9.578;2022-12-22T12:50:32;99407.72;;;19.48;58.10
3544;BME280;1786;52.870;9.578;2022-12-22T12:53:06;99412.13;;;19.26;58.22
3544;BME280;1786;52.870;9.578;2022-12-22T12:55:59;99419.03;;;18.83;59.42
3544;BME280;1786;52.870;9.578;2022-12-22T13:01:11;99416.59;;;18.65;59.84
3544;BME280;1786;52.870;9.578;2022-12-22T13:03:40;99424.75;;;18.48;59.66
3544;BME280;1786;52.870;9.578;2022-12-22T13:09:19;99416.13;;;19.07;57.88
3544;BME280;1786;52.870;9.578;2022-12-22T13:12:32;99422.50;;;18.29;59.36
3544;BME280;1786;52.870;9.578;2022-12-22T13:14:59;99420.69;;;18.84;58.25
3544;BME280;1786;52.870;9.578;2022-12-22T13:17:40;99417.91;;;19.15;57.88
3544;BME280;1786;52.870;9.578;2022-12-22T13:20:14;99418.00;;;19.21;57.78
3544;BME280;1786;52.870;9.578;2022-12-22T13:22:44;99422.38;;;19.37;56.95
3544;BME280;1786;52.870;9.578;2022-12-22T13:25:14;99426.50;;;19.25;57.11
3544;BME280;1786;52.870;9.578;2022-12-22T13:27:42;99435.91;;;18.83;58.10
3544;BME280;1786;52.870;9.578;2022-12-22T13:30:14;99432.94;;;18.78;58.22
3544;BME280;1786;52.870;9.578;2022-12-22T13:32:44;99436.53;;;19.08;57.48
3544;BME280;1786;52.870;9.578;2022-12-22T13:35:21;99442.81;;;19.38;56.80
3544;BME280;1786;52.870;9.578;2022-12-22T13:38:01;99443.03;;;19.14;57.33
3544;BME280;1786;52.870;9.578;2022-12-22T13:40:29;99448.59;;;19.27;56.57
3544;BME280;1786;52.870;9.578;2022-12-22T13:43:03;99441.38;;;18.90;57.47
3544;BME280;1786;52.870;9.578;2022-12-22T13:45:34;99445.06;;;18.89;56.77
3544;BME280;1786;52.870;9.578;2022-12-22T13:48:11;99448.09;;;18.54;57.96
3544;BME280;1786;52.870;9.578;2022-12-22T13:50:48;99447.66;;;18.74;57.00
3544;BME280;1786;52.870;9.578;2022-12-22T13:53:27;99447.91;;;18.87;57.00
3544;BME280;1786;52.870;9.578;2022-12-22T13:56:18;99448.75;;;19.11;56.19
3544;BME280;1786;52.870;9.578;2022-12-22T13:58:50;99455.28;;;19.08;56.00
3544;BME280;1786;52.870;9.578;2022-12-22T14:01:19;99451.66;;;19.01;56.42
3544;BME280;1786;52.870;9.578;2022-12-22T14:03:51;99445.97;;;18.81;56.05
3544;BME280;1786;52.870;9.578;2022-12-22T14:06:32;99452.91;;;18.67;56.09
3544;BME280;1786;52.870;9.578;2022-12-22T14:09:16;99451.50;;;19.02;55.73
3544;BME280;1786;52.870;9.578;2022-12-22T14:12:04;99448.94;;;19.24;55.20
3544;BME280;1786;52.870;9.578;2022-12-22T14:14:38;99463.94;;;19.33;54.65
3544;BME280;1786;52.870;9.578;2022-12-22T14:17:24;99458.47;;;19.27;54.52
3544;BME280;1786;52.870;9.578;2022-12-22T14:19:56;99468.91;;;19.21;54.83
3544;BME280;1786;52.870;9.578;2022-12-22T14:22:28;99471.44;;;19.15;54.56
3544;BME280;1786;52.870;9.578;2022-12-22T14:25:03;99471.72;;;18.74;55.36
3544;BME280;1786;52.870;9.578;2022-12-22T14:27:38;99478.13;;;18.65;55.59
3544;BME280;1786;52.870;9.578;2022-12-22T14:30:21;99488.63;;;18.43;55.72
3544;BME280;1786;52.870;9.578;2022-12-22T14:32:53;99472.88;;;18.17;56.20
3544;BME280;1786;52.870;9.578;2022-12-22T14:40:29;99474.53;;;18.49;54.66
3544;BME280;1786;52.870;9.578;2022-12-22T14:42:57;99473.97;;;18.31;54.80
3544;BME280;1786;52.870;9.578;2022-12-22T14:45:25;99472.84;;;18.25;54.80
3544;BME280;1786;52.870;9.578;2022-12-22T14:47:53;99475.44;;;17.94;55.18
3544;BME280;1786;52.870;9.578;2022-12-22T14:50:24;99484.03;;;17.65;55.65
3544;BME280;1786;52.870;9.578;2022-12-22T14:52:58;99481.66;;;17.86;55.20
3544;BME280;1786;52.870;9.578;2022-12-22T14:55:36;99476.31;;;17.78;55.25
3544;BME280;1786;52.870;9.578;2022-12-22T14:58:27;99487.25;;;17.27;55.57
3544;BME280;1786;52.870;9.578;2022-12-22T15:01:31;99496.19;;;16.77;56.69
3544;BME280;1786;52.870;9.578;2022-12-22T15:06:33;99499.06;;;17.00;55.88
3544;BME280;1786;52.870;9.578;2022-12-22T15:11:33;99506.94;;;17.26;55.02
3544;BME280;1786;52.870;9.578;2022-12-22T15:14:02;99509.59;;;17.35;54.63
3544;BME280;1786;52.870;9.578;2022-12-22T15:16:30;99517.09;;;17.15;54.83
3544;BME280;1786;52.870;9.578;2022-12-22T15:18:56;99515.94;;;17.17;54.48